createdAt,value
2018-12-16T00:04:28.535Z,31.00
2018-12-16T00:09:33.610Z,30.43
2018-12-16T00:14:36.311Z,29.60
2018-12-16T00:19:39.049Z,30.67
2018-12-16T00:24:41.857Z,28.93
2018-12-16T00:29:44.674Z,29.00
2018-12-16T00:34:47.790Z,29.97
2018-12-16T00:39:50.758Z,30.40
2018-12-16T00:44:53.649Z,31.27
2018-12-16T00:49:56.523Z,30.50
2018-12-16T00:54:59.319Z,30.70
2018-12-16T01:00:02.696Z,29.57
2018-12-16T01:05:07.583Z,29.87
2018-12-16T01:10:10.921Z,29.83
2018-12-16T01:15:14.005Z,28.43
2018-12-16T01:20:17.093Z,28.17
2018-12-16T01:25:20.280Z,27.90
2018-12-16T01:30:23.094Z,26.60
2018-12-16T01:35:26.051Z,26.70
2018-12-16T01:40:28.963Z,25.77
2018-12-16T01:45:31.809Z,23.60
2018-12-16T01:50:34.756Z,23.57
2018-12-16T01:55:37.709Z,23.27
2018-12-16T02:00:40.611Z,22.27
2018-12-16T02:05:43.651Z,21.97
2018-12-16T02:10:47.065Z,21.07
2018-12-16T02:15:49.757Z,21.60
2018-12-16T02:20:52.581Z,21.43
2018-12-16T02:25:56.313Z,21.83
2018-12-16T02:30:59.076Z,20.60
2018-12-16T02:36:01.899Z,19.13
2018-12-16T02:41:04.734Z,20.07
2018-12-16T02:46:07.957Z,18.20
2018-12-16T02:51:10.910Z,18.63
2018-12-16T02:56:13.678Z,17.20
2018-12-16T03:01:16.573Z,16.43
2018-12-16T03:06:19.558Z,15.23
2018-12-16T03:11:22.391Z,14.73
2018-12-16T03:16:25.282Z,14.83
2018-12-16T03:21:28.309Z,13.33
2018-12-16T03:26:35.913Z,13.07
2018-12-16T03:31:36.181Z,12.03
2018-12-16T03:36:39.164Z,17.00
2018-12-16T03:41:41.960Z,17.97
2018-12-16T03:46:44.821Z,18.57
2018-12-16T03:51:47.429Z,18.97
2018-12-16T03:56:50.211Z,20.57
2018-12-16T04:01:53.953Z,21.13
2018-12-16T04:06:56.736Z,21.60
2018-12-16T04:11:59.472Z,22.57
2018-12-16T04:17:02.165Z,23.80
2018-12-16T04:22:04.973Z,22.83
2018-12-16T04:27:07.660Z,22.97
2018-12-16T04:32:10.482Z,25.23
2018-12-16T04:37:13.362Z,25.60
2018-12-16T04:42:16.110Z,25.57
2018-12-16T04:47:19.076Z,25.40
2018-12-16T04:52:21.897Z,25.50
2018-12-16T04:57:24.778Z,25.17
2018-12-16T05:02:27.706Z,25.10
2018-12-16T05:07:30.292Z,25.57
2018-12-16T05:12:32.970Z,25.80
2018-12-16T05:17:35.760Z,26.23
2018-12-16T05:22:38.672Z,25.63
2018-12-16T05:27:41.448Z,25.73
2018-12-16T05:32:44.265Z,25.17
2018-12-16T05:37:47.099Z,24.93
2018-12-16T05:42:50.011Z,26.10
2018-12-16T05:47:52.644Z,25.77
2018-12-16T05:52:55.327Z,26.47
2018-12-16T05:57:58.269Z,25.67
2018-12-16T06:03:01.160Z,26.47
2018-12-16T06:08:04.143Z,25.13
2018-12-16T06:13:06.841Z,25.33
2018-12-16T06:18:09.570Z,27.70
2018-12-16T06:23:12.166Z,26.10
2018-12-16T06:28:14.767Z,25.57
2018-12-16T06:33:17.596Z,26.43
2018-12-16T06:38:20.444Z,25.70
2018-12-16T06:43:23.133Z,25.17
2018-12-16T06:48:25.867Z,26.40
2018-12-16T06:53:28.572Z,26.07
2018-12-16T06:58:31.474Z,24.97
2018-12-16T07:03:35.098Z,24.70
2018-12-16T07:08:38.121Z,22.03
2018-12-16T07:13:40.941Z,22.73
2018-12-16T07:18:43.634Z,22.90
2018-12-16T07:23:46.485Z,22.00
2018-12-16T07:28:49.285Z,21.67
2018-12-16T07:33:52.802Z,21.63
2018-12-16T07:38:55.519Z,20.43
2018-12-16T07:43:58.227Z,21.30
2018-12-16T07:49:01.062Z,20.43
2018-12-16T07:54:04.170Z,21.17
2018-12-16T07:59:08.431Z,20.20
2018-12-16T08:04:11.515Z,21.17
2018-12-16T08:09:14.235Z,19.27
2018-12-16T08:14:19.002Z,19.03
2018-12-16T08:19:21.974Z,16.83
2018-12-16T08:24:24.887Z,19.87
2018-12-16T08:29:27.862Z,18.93
2018-12-16T08:34:30.447Z,19.20
2018-12-16T08:39:33.316Z,17.20
2018-12-16T08:44:36.089Z,17.50
2018-12-16T08:49:38.946Z,18.07
2018-12-16T08:54:41.646Z,17.13
2018-12-16T08:59:44.401Z,17.17
2018-12-16T09:04:47.089Z,19.10
2018-12-16T09:09:49.842Z,18.67
2018-12-16T09:14:55.599Z,15.90
2018-12-16T09:19:58.301Z,16.23
2018-12-16T09:25:01.175Z,15.57
2018-12-16T09:30:06.557Z,15.90
2018-12-16T09:35:09.662Z,16.47
2018-12-16T09:40:12.693Z,15.23
2018-12-16T09:45:15.625Z,15.33
2018-12-16T09:50:18.614Z,16.47
2018-12-16T09:55:21.426Z,15.97
2018-12-16T10:00:24.374Z,13.70
2018-12-16T10:05:27.275Z,14.73
2018-12-16T10:10:30.039Z,14.87
2018-12-16T10:15:32.826Z,14.63
2018-12-16T10:20:35.716Z,14.23
2018-12-16T10:25:38.663Z,14.37
2018-12-16T10:30:41.449Z,13.43
2018-12-16T10:35:44.413Z,12.97
2018-12-16T10:40:47.258Z,12.77
2018-12-16T10:45:50.018Z,14.13
2018-12-16T10:50:53.840Z,14.37
2018-12-16T10:55:56.597Z,15.17
2018-12-16T11:01:05.078Z,15.23
2018-12-16T11:06:07.980Z,15.30
2018-12-16T11:11:10.878Z,14.67
2018-12-16T11:16:13.708Z,13.80
2018-12-16T11:21:16.769Z,14.20
2018-12-16T11:26:19.559Z,15.30
2018-12-16T11:31:22.633Z,15.33
2018-12-16T11:36:25.406Z,15.73
2018-12-16T11:41:28.483Z,14.37
2018-12-16T11:46:31.394Z,16.70
2018-12-16T11:51:34.263Z,14.30
2018-12-16T11:56:37.377Z,14.27
2018-12-16T12:01:40.053Z,13.33
2018-12-16T12:06:45.006Z,14.03
2018-12-16T12:11:47.822Z,14.13
2018-12-16T12:16:50.540Z,14.57
2018-12-16T12:21:53.305Z,13.77
2018-12-16T12:26:55.972Z,13.50
2018-12-16T12:31:58.970Z,15.50
2018-12-16T12:37:01.906Z,14.33
2018-12-16T12:42:05.042Z,14.27
2018-12-16T12:47:08.229Z,14.17
2018-12-16T12:52:11.366Z,15.20
2018-12-16T12:57:14.390Z,14.33
2018-12-16T13:02:17.247Z,14.80
2018-12-16T13:07:20.212Z,14.80
2018-12-16T13:12:23.058Z,14.07
2018-12-16T13:17:25.947Z,14.17
2018-12-16T13:22:28.729Z,15.13
2018-12-16T13:27:31.956Z,14.10
2018-12-16T13:32:34.917Z,14.63
2018-12-16T13:37:37.737Z,14.77
2018-12-16T13:42:42.593Z,15.43
2018-12-16T13:47:45.552Z,14.93
2018-12-16T13:52:48.325Z,13.23
2018-12-16T13:57:51.638Z,15.47
2018-12-16T14:02:54.514Z,15.67
2018-12-16T14:07:57.376Z,15.03
2018-12-16T14:13:00.297Z,14.93
2018-12-16T14:18:03.860Z,14.73
2018-12-16T14:23:06.848Z,15.37
2018-12-16T14:28:09.985Z,14.73
2018-12-16T14:33:12.819Z,14.03
2018-12-16T14:38:15.992Z,15.40
2018-12-16T14:43:19.014Z,14.43
2018-12-16T14:48:21.856Z,14.17
2018-12-16T14:53:24.454Z,15.67
2018-12-16T14:58:27.263Z,14.43
2018-12-16T15:03:30.139Z,14.37
2018-12-16T15:08:33.160Z,13.17
2018-12-16T15:13:36.140Z,14.53
2018-12-16T15:18:38.981Z,14.83
2018-12-16T15:23:42.026Z,15.20
2018-12-16T15:28:45.211Z,14.93
2018-12-16T15:33:48.438Z,16.03
2018-12-16T15:38:51.208Z,14.07
2018-12-16T15:43:53.881Z,14.67
2018-12-16T15:48:56.828Z,16.00
2018-12-16T15:54:00.025Z,16.50
2018-12-16T15:59:04.025Z,15.37
2018-12-16T16:04:07.153Z,16.07
2018-12-16T16:09:10.310Z,16.13
2018-12-16T16:14:13.793Z,16.20
2018-12-16T16:19:16.560Z,15.57
2018-12-16T16:24:19.336Z,15.10
2018-12-16T16:29:22.245Z,17.10
2018-12-16T16:34:25.182Z,16.13
2018-12-16T16:39:28.031Z,16.73
2018-12-16T16:44:31.049Z,17.57
2018-12-16T16:49:33.919Z,16.37
2018-12-16T16:54:36.905Z,17.27
2018-12-16T16:59:39.657Z,18.17
2018-12-16T17:04:42.188Z,18.40
2018-12-16T17:09:45.164Z,18.47
2018-12-16T17:14:47.999Z,17.93
2018-12-16T17:19:50.871Z,17.97
2018-12-16T17:24:53.746Z,18.87
2018-12-16T17:29:56.598Z,19.10
2018-12-16T17:34:59.414Z,18.50
2018-12-16T17:40:02.542Z,18.50
2018-12-16T17:45:07.789Z,18.13
2018-12-16T17:50:10.900Z,18.67
2018-12-16T17:55:13.831Z,17.70
2018-12-16T18:00:17.044Z,17.20
2018-12-16T18:05:20.539Z,18.00
2018-12-16T18:10:23.489Z,18.37
2018-12-16T18:15:26.501Z,17.90
2018-12-16T18:20:29.572Z,18.03
2018-12-16T18:25:32.445Z,18.47
2018-12-16T18:30:35.330Z,18.83
2018-12-16T18:35:38.151Z,17.20
2018-12-16T18:40:41.004Z,18.57
2018-12-16T18:45:44.128Z,18.63
2018-12-16T18:50:47.249Z,18.93
2018-12-16T18:55:50.117Z,19.67
2018-12-16T19:00:53.032Z,18.97
2018-12-16T19:05:56.194Z,19.77
2018-12-16T19:10:59.107Z,20.10
2018-12-16T19:16:02.407Z,20.07
2018-12-16T19:21:05.517Z,19.93
2018-12-16T19:26:08.765Z,18.30
2018-12-16T19:31:11.408Z,19.47
2018-12-16T19:36:17.320Z,19.77
2018-12-16T19:41:20.343Z,19.50
2018-12-16T19:46:23.149Z,18.97
2018-12-16T19:51:26.021Z,20.40
2018-12-16T19:56:28.971Z,19.77
2018-12-16T20:01:31.940Z,18.97
2018-12-16T20:06:41.105Z,19.13
2018-12-16T20:11:44.135Z,17.97
2018-12-16T20:16:46.952Z,18.20
2018-12-16T20:21:49.952Z,18.00
2018-12-16T20:26:52.869Z,19.07
2018-12-16T20:31:55.790Z,18.40
2018-12-16T20:37:01.473Z,18.63
2018-12-16T20:42:04.490Z,19.90
2018-12-16T20:47:07.510Z,19.20
2018-12-16T20:52:10.383Z,19.70
2018-12-16T20:57:18.845Z,19.37
2018-12-16T21:02:18.313Z,20.33
2018-12-16T21:07:21.277Z,20.83
2018-12-16T21:12:29.957Z,27.52
2018-12-16T21:17:38.782Z,21.40
2018-12-16T21:22:41.850Z,20.87
2018-12-16T21:27:44.629Z,21.37
2018-12-16T21:32:47.541Z,23.83
2018-12-16T21:37:50.442Z,23.53
2018-12-16T21:42:53.745Z,22.00
2018-12-16T21:47:56.531Z,22.80
2018-12-16T21:52:59.309Z,23.47
2018-12-16T21:58:02.237Z,22.67
2018-12-16T22:03:05.492Z,22.53
2018-12-16T22:08:08.359Z,23.43
2018-12-16T22:13:11.218Z,22.37
2018-12-16T22:18:14.330Z,22.43
2018-12-16T22:23:18.185Z,24.47
2018-12-16T22:28:21.073Z,23.30
2018-12-16T22:33:24.765Z,23.40
2018-12-16T22:38:27.493Z,25.90
2018-12-16T22:43:30.477Z,24.90
2018-12-16T22:48:33.373Z,23.77
2018-12-16T22:53:36.278Z,24.03
2018-12-16T22:58:39.189Z,26.57
2018-12-16T23:03:41.865Z,23.90
2018-12-16T23:08:45.088Z,25.97
2018-12-16T23:13:48.705Z,24.43
2018-12-16T23:18:51.580Z,25.83
2018-12-16T23:23:54.530Z,25.33
2018-12-16T23:28:57.469Z,25.43
2018-12-16T23:34:00.426Z,26.87
2018-12-16T23:39:04.933Z,25.90
2018-12-16T23:44:09.846Z,25.50
2018-12-16T23:49:12.705Z,26.20
2018-12-16T23:54:15.641Z,25.47
2018-12-16T23:59:18.472Z,26.13
